Time;durP1;ratioP1;P1;durP2;ratioP2;P2;SDS_P1;SDS_P2;PMS_P1;PMS_P2;Temp;Humidity;BMP_temperature;BMP_pressure;BME280_temperature;BME280_humidity;BME280_pressure;Samples;Min_cycle;Max_cycle;Signal;HPM_P1;HPM_P2
2023/07/24 00:01:46;;;;;;;5.70;3.58;;;;;;;;;;4950450;28;20050;-77
2023/07/24 00:04:13;;;;;;;4.30;3.53;;;;;;;;;;4954932;28;20054;-77
2023/07/24 00:06:44;;;;;;;3.83;2.65;;;;;;;;;;4938267;29;20043;-77
2023/07/24 00:09:11;;;;;;;3.38;2.47;;;;;;;;;;4929504;28;20054;-77
2023/07/24 00:11:38;;;;;;;3.22;2.05;;;;;;;;;;4942014;28;20070;-77
2023/07/24 00:14:06;;;;;;;4.13;3.10;;;;;;;;;;4945481;28;20054;-77
2023/07/24 00:16:35;;;;;;;5.00;3.03;;;;;;;;;;4930298;28;20054;-76
2023/07/24 00:19:05;;;;;;;3.88;3.03;;;;;;;;;;4922571;28;20536;-76
2023/07/24 00:21:32;;;;;;;4.03;2.38;;;;;;;;;;4931500;28;20046;-76
2023/07/24 00:24:01;;;;;;;3.85;2.80;;;;;;;;;;4955324;28;20047;-76
2023/07/24 00:26:33;;;;;;;5.35;2.97;;;;;;;;;;4930696;29;20051;-76
2023/07/24 00:29:03;;;;;;;4.55;2.35;;;;;;;;;;4921604;28;20063;-76
2023/07/24 00:31:30;;;;;;;3.40;2.35;;;;;;;;;;4943710;29;20070;-76
2023/07/24 00:34:00;;;;;;;5.60;2.78;;;;;;;;;;4929853;28;20497;-76
2023/07/24 00:36:29;;;;;;;5.00;3.22;;;;;;;;;;4920596;28;20062;-76
2023/07/24 00:39:00;;;;;;;3.45;3.13;;;;;;;;;;4961027;28;20058;-76
2023/07/24 00:41:27;;;;;;;5.15;2.88;;;;;;;;;;4932333;28;20047;-76
2023/07/24 00:43:55;;;;;;;3.60;2.42;;;;;;;;;;4928499;28;20481;-76
2023/07/24 00:46:22;;;;;;;4.00;2.67;;;;;;;;;;4915700;29;20665;-76
2023/07/24 00:48:49;;;;;;;3.55;3.10;;;;;;;;;;4937752;28;20051;-76
2023/07/24 00:51:17;;;;;;;5.45;3.33;;;;;;;;;;4931133;28;20497;-76
2023/07/24 00:53:47;;;;;;;12.23;3.47;;;;;;;;;;4929377;29;20054;-76
2023/07/24 00:56:21;;;;;;;4.65;3.15;;;;;;;;;;4931283;28;20516;-76
2023/07/24 00:58:48;;;;;;;4.60;2.28;;;;;;;;;;4926023;29;20078;-76
2023/07/24 01:01:18;;;;;;;5.03;2.85;;;;;;;;;;4939500;29;20047;-76
2023/07/24 01:03:48;;;;;;;6.43;3.10;;;;;;;;;;4940695;29;20051;-77
2023/07/24 01:06:15;;;;;;;3.35;2.67;;;;;;;;;;4920377;28;20626;-77
2023/07/24 01:08:44;;;;;;;4.18;2.58;;;;;;;;;;4916539;29;20043;-77
2023/07/24 01:11:16;;;;;;;4.22;2.90;;;;;;;;;;4933839;28;20054;-77
2023/07/24 01:13:50;;;;;;;4.40;2.67;;;;;;;;;;4922054;29;20047;-77
2023/07/24 01:16:23;;;;;;;3.35;3.05;;;;;;;;;;4935129;28;20054;-77
2023/07/24 01:18:55;;;;;;;5.03;2.83;;;;;;;;;;4930673;28;20147;-77
2023/07/24 01:21:31;;;;;;;3.80;2.78;;;;;;;;;;4933758;28;20039;-77
2023/07/24 01:24:04;;;;;;;3.40;2.95;;;;;;;;;;4949804;28;20062;-77
2023/07/24 01:26:35;;;;;;;5.05;3.30;;;;;;;;;;4934411;29;20048;-77
2023/07/24 01:29:05;;;;;;;3.25;2.88;;;;;;;;;;4943751;28;20051;-77
2023/07/24 01:31:37;;;;;;;3.97;3.03;;;;;;;;;;4945971;28;20158;-77
2023/07/24 01:34:04;;;;;;;3.40;2.72;;;;;;;;;;4926636;28;20051;-77
2023/07/24 01:36:32;;;;;;;3.90;2.60;;;;;;;;;;4918133;29;20502;-77
2023/07/24 01:38:59;;;;;;;5.75;2.83;;;;;;;;;;4941129;28;20051;-77
2023/07/24 01:41:29;;;;;;;5.45;2.92;;;;;;;;;;4939067;29;20047;-77
2023/07/24 01:44:06;;;;;;;4.28;3.17;;;;;;;;;;4920561;28;20078;-77
2023/07/24 01:46:33;;;;;;;3.72;3.03;;;;;;;;;;4923576;29;20055;-77
2023/07/24 01:49:03;;;;;;;5.43;4.05;;;;;;;;;;4951259;28;20066;-77
2023/07/24 01:51:30;;;;;;;5.03;3.40;;;;;;;;;;4937959;29;20354;-77
2023/07/24 01:54:00;;;;;;;3.80;2.80;;;;;;;;;;4952345;28;20481;-77
2023/07/24 01:56:27;;;;;;;4.90;2.90;;;;;;;;;;4922180;29;20908;-77
2023/07/24 01:58:54;;;;;;;5.68;3.30;;;;;;;;;;4938614;29;20051;-77
2023/07/24 02:01:25;;;;;;;5.28;3.95;;;;;;;;;;4939007;29;20055;-77
2023/07/24 02:03:52;;;;;;;5.00;3.58;;;;;;;;;;4927711;29;20058;-77
2023/07/24 02:06:22;;;;;;;4.75;3.08;;;;;;;;;;4926063;28;20054;-77
2023/07/24 02:08:52;;;;;;;3.90;3.38;;;;;;;;;;4920386;29;20066;-77
2023/07/24 02:11:21;;;;;;;3.13;2.58;;;;;;;;;;4917995;28;20050;-77
2023/07/24 02:13:48;;;;;;;4.88;2.95;;;;;;;;;;4939759;29;20051;-77
2023/07/24 02:16:16;;;;;;;4.22;3.10;;;;;;;;;;4934328;28;20448;-77
2023/07/24 02:18:45;;;;;;;5.25;3.83;;;;;;;;;;4921538;29;20047;-77
2023/07/24 02:21:12;;;;;;;3.83;2.72;;;;;;;;;;4927166;28;20061;-77
2023/07/24 02:23:39;;;;;;;4.88;2.97;;;;;;;;;;4927388;28;20058;-77
2023/07/24 02:26:09;;;;;;;4.18;3.17;;;;;;;;;;4942606;28;20047;-77
2023/07/24 02:28:36;;;;;;;3.63;2.58;;;;;;;;;;4942606;29;20047;-77
2023/07/24 02:31:03;;;;;;;3.70;3.28;;;;;;;;;;4947278;28;20051;-77
2023/07/24 02:33:30;;;;;;;4.43;3.25;;;;;;;;;;4924256;29;20051;-77
2023/07/24 02:36:02;;;;;;;5.00;3.10;;;;;;;;;;4947734;28;20480;-77
2023/07/24 02:38:29;;;;;;;4.32;3.33;;;;;;;;;;4930032;29;20047;-77
2023/07/24 02:40:56;;;;;;;5.93;3.60;;;;;;;;;;4937679;28;20264;-77
2023/07/24 02:43:23;;;;;;;6.32;2.85;;;;;;;;;;4929093;29;20062;-77
2023/07/24 02:45:50;;;;;;;3.97;3.42;;;;;;;;;;4915013;28;20516;-77
2023/07/24 02:48:18;;;;;;;6.22;3.40;;;;;;;;;;4910250;29;20047;-77
2023/07/24 02:50:48;;;;;;;5.20;3.35;;;;;;;;;;4932923;28;20054;-77
2023/07/24 02:53:19;;;;;;;6.53;2.55;;;;;;;;;;4925868;29;20035;-77
2023/07/24 02:55:49;;;;;;;3.70;3.33;;;;;;;;;;4931874;28;20539;-77
2023/07/24 02:58:18;;;;;;;3.42;2.40;;;;;;;;;;4929844;29;20066;-77
2023/07/24 03:00:45;;;;;;;4.47;3.25;;;;;;;;;;4914064;28;20409;-77
2023/07/24 03:03:15;;;;;;;6.00;3.10;;;;;;;;;;4931904;29;20054;-77
2023/07/24 03:05:43;;;;;;;5.75;3.40;;;;;;;;;;4928668;29;20054;-77
2023/07/24 03:08:10;;;;;;;5.65;3.10;;;;;;;;;;4910552;28;20059;-77
2023/07/24 03:10:42;;;;;;;5.03;2.90;;;;;;;;;;4940237;28;20074;-77
2023/07/24 03:13:14;;;;;;;4.15;3.08;;;;;;;;;;4909458;28;20098;-77
2023/07/24 03:15:41;;;;;;;3.60;3.20;;;;;;;;;;4927935;29;20055;-77
2023/07/24 03:18:08;;;;;;;3.65;2.97;;;;;;;;;;4926175;28;20066;-77
2023/07/24 03:20:36;;;;;;;4.13;2.97;;;;;;;;;;4927310;29;20051;-77
2023/07/24 03:23:05;;;;;;;3.38;2.75;;;;;;;;;;4911573;28;20051;-77
2023/07/24 03:25:35;;;;;;;4.75;3.00;;;;;;;;;;4913870;29;20066;-77
2023/07/24 03:28:06;;;;;;;4.60;3.15;;;;;;;;;;4912309;28;20058;-77
2023/07/24 03:30:34;;;;;;;3.72;2.78;;;;;;;;;;4925616;29;20648;-77
2023/07/24 03:33:02;;;;;;;4.10;2.90;;;;;;;;;;4925930;29;20039;-77
2023/07/24 03:35:31;;;;;;;3.30;2.92;;;;;;;;;;4913476;29;20066;-77
2023/07/24 03:37:59;;;;;;;4.35;3.22;;;;;;;;;;4910590;29;20509;-77
2023/07/24 03:40:29;;;;;;;3.17;2.28;;;;;;;;;;4945632;28;20054;-77
2023/07/24 03:42:58;;;;;;;5.35;3.67;;;;;;;;;;4909037;29;20051;-77
2023/07/24 03:45:29;;;;;;;4.38;2.75;;;;;;;;;;4925071;28;20051;-77
2023/07/24 03:47:59;;;;;;;9.02;3.78;;;;;;;;;;4927456;29;20062;-77
2023/07/24 03:50:30;;;;;;;4.05;3.53;;;;;;;;;;4909812;28;20051;-77
2023/07/24 03:53:02;;;;;;;5.05;3.88;;;;;;;;;;4925659;29;20054;-77
2023/07/24 03:55:29;;;;;;;5.72;3.25;;;;;;;;;;4925484;28;20054;-77
2023/07/24 03:57:58;;;;;;;6.85;3.20;;;;;;;;;;4927339;29;20353;-78
2023/07/24 04:00:29;;;;;;;5.35;3.60;;;;;;;;;;4945934;28;20058;-78
2023/07/24 04:02:56;;;;;;;5.00;2.60;;;;;;;;;;4942797;28;20596;-78
2023/07/24 04:05:24;;;;;;;6.55;3.90;;;;;;;;;;4926534;28;20054;-78
2023/07/24 04:07:51;;;;;;;9.73;3.90;;;;;;;;;;4910309;29;20055;-78
2023/07/24 04:10:18;;;;;;;3.95;2.80;;;;;;;;;;4917158;28;20102;-77
2023/07/24 04:12:46;;;;;;;3.28;2.97;;;;;;;;;;4956189;28;20039;-78
2023/07/24 04:15:13;;;;;;;5.05;3.35;;;;;;;;;;4938739;28;20043;-78
2023/07/24 04:17:42;;;;;;;4.05;2.75;;;;;;;;;;4958451;28;20409;-78
2023/07/24 04:20:12;;;;;;;4.93;3.67;;;;;;;;;;4927000;28;20055;-78
2023/07/24 04:22:42;;;;;;;5.25;3.15;;;;;;;;;;4912937;29;20058;-78
2023/07/24 04:25:11;;;;;;;5.60;3.35;;;;;;;;;;4926776;28;20058;-78
2023/07/24 04:27:39;;;;;;;4.85;3.03;;;;;;;;;;4941910;28;20065;-78
2023/07/24 04:30:07;;;;;;;4.75;3.30;;;;;;;;;;4928406;29;20062;-78
2023/07/24 04:32:37;;;;;;;3.70;3.10;;;;;;;;;;4939411;28;20047;-77
2023/07/24 04:35:08;;;;;;;4.03;3.13;;;;;;;;;;4911581;29;20055;-77
2023/07/24 04:37:36;;;;;;;3.78;3.30;;;;;;;;;;4924527;28;20437;-77
2023/07/24 04:40:04;;;;;;;3.90;3.50;;;;;;;;;;4946820;28;20047;-77
2023/07/24 04:42:31;;;;;;;5.28;3.30;;;;;;;;;;4924695;28;20051;-77
2023/07/24 04:44:58;;;;;;;5.22;3.80;;;;;;;;;;4907822;29;20070;-77
2023/07/24 04:47:26;;;;;;;4.38;3.00;;;;;;;;;;4923832;28;20051;-77
2023/07/24 04:49:53;;;;;;;3.58;2.63;;;;;;;;;;4912028;29;20059;-77
2023/07/24 04:52:21;;;;;;;3.85;3.17;;;;;;;;;;4927542;28;20050;-77
2023/07/24 04:54:49;;;;;;;5.30;3.45;;;;;;;;;;4946190;28;20059;-77
2023/07/24 04:57:21;;;;;;;3.70;2.58;;;;;;;;;;4941146;28;20066;-77
2023/07/24 04:59:48;;;;;;;3.60;2.92;;;;;;;;;;4909637;29;20065;-77
2023/07/24 05:02:15;;;;;;;5.53;3.63;;;;;;;;;;4930851;28;20058;-77
2023/07/24 05:04:45;;;;;;;6.03;4.43;;;;;;;;;;4931309;29;20059;-77
2023/07/24 05:07:14;;;;;;;4.93;3.60;;;;;;;;;;4942964;28;20054;-77
2023/07/24 05:09:45;;;;;;;6.97;3.25;;;;;;;;;;4909805;29;20055;-77
2023/07/24 05:12:15;;;;;;;3.95;3.00;;;;;;;;;;4926929;28;20058;-77
2023/07/24 05:14:42;;;;;;;4.50;3.72;;;;;;;;;;4921096;29;20397;-77
2023/07/24 05:17:09;;;;;;;4.22;3.13;;;;;;;;;;4934316;28;20059;-77
2023/07/24 05:19:37;;;;;;;4.05;3.47;;;;;;;;;;4907048;28;21099;-77
2023/07/24 05:22:05;;;;;;;5.97;3.55;;;;;;;;;;4908783;29;20253;-77
2023/07/24 05:24:36;;;;;;;4.60;3.50;;;;;;;;;;4925302;28;20050;-77
2023/07/24 05:27:05;;;;;;;4.07;3.13;;;;;;;;;;4946092;28;20059;-77
2023/07/24 05:29:33;;;;;;;4.43;3.00;;;;;;;;;;4961374;28;20058;-77
2023/07/24 05:32:00;;;;;;;4.57;3.17;;;;;;;;;;4917281;29;20066;-78
2023/07/24 05:34:30;;;;;;;4.88;3.33;;;;;;;;;;4941243;28;20473;-77
2023/07/24 05:36:57;;;;;;;4.38;3.03;;;;;;;;;;4918083;29;20059;-77
2023/07/24 05:39:24;;;;;;;4.28;3.17;;;;;;;;;;4927247;28;20405;-77
2023/07/24 05:41:53;;;;;;;4.07;3.20;;;;;;;;;;4937310;29;20062;-77
2023/07/24 05:44:22;;;;;;;4.40;3.78;;;;;;;;;;4943944;28;20055;-77
2023/07/24 05:46:54;;;;;;;4.30;3.78;;;;;;;;;;4959709;28;20062;-77
2023/07/24 05:49:21;;;;;;;4.95;3.25;;;;;;;;;;4919249;28;20062;-78
2023/07/24 05:51:48;;;;;;;7.30;3.47;;;;;;;;;;4922037;29;20421;-79
2023/07/24 06:23:00;;;;;;;4.22;3.17;;;;;;;;;;1476816;26;20078;-77
2023/07/24 06:25:29;;;;;;;7.25;3.90;;;;;;;;;;4940518;28;20051;-77
2023/07/24 06:27:56;;;;;;;5.90;3.60;;;;;;;;;;4937794;28;20050;-76
2023/07/24 06:30:27;;;;;;;7.32;3.28;;;;;;;;;;4948240;28;20051;-76
2023/07/24 06:32:54;;;;;;;6.00;3.72;;;;;;;;;;4953317;28;20051;-76
2023/07/24 07:20:56;;;;;;;5.43;4.30;;;;;;;;;;4923886;29;20059;-77
2023/07/24 07:23:23;;;;;;;5.88;3.97;;;;;;;;;;4914921;29;20059;-77
2023/07/24 07:25:52;;;;;;;7.35;4.63;;;;;;;;;;4900994;29;20063;-77
2023/07/24 07:28:37;;;;;;;8.73;5.10;;;;;;;;;;4918449;29;20066;-78
2023/07/24 07:52:22;;;;;;;;;;;;;;;;;;;;;
2023/07/24 07:55:22;;;;;;;;;;;;;;;;;;;;;
2023/07/24 07:58:25;;;;;;;6.80;5.35;;;;;;;;;;4864938;29;20052;-77
2023/07/24 08:04:34;;;;;;;;;;;;;;;;;;4895846;29;20410;-78
2023/07/24 08:07:37;;;;;;;9.65;5.75;;;;;;;;;;4931600;29;20385;-78
2023/07/24 08:37:30;;;;;;;8.65;6.20;;;;;;;;;;4935481;23;20050;-93
2023/07/24 08:39:58;;;;;;;8.55;5.35;;;;;;;;;;4932401;28;20052;-92
2023/07/24 08:42:38;;;;;;;7.85;5.40;;;;;;;;;;4914106;29;20053;-93
2023/07/24 08:45:06;;;;;;;8.05;5.78;;;;;;;;;;4903834;29;20044;-94
2023/07/24 08:47:35;;;;;;;8.00;5.88;;;;;;;;;;4914785;29;20045;-92
2023/07/24 08:50:03;;;;;;;6.60;5.60;;;;;;;;;;4916769;29;20028;-93
2023/07/24 08:52:34;;;;;;;5.70;5.10;;;;;;;;;;4902465;29;20052;-92
2023/07/24 08:55:04;;;;;;;8.45;5.57;;;;;;;;;;4933852;29;20048;-95
2023/07/24 08:57:31;;;;;;;8.80;5.68;;;;;;;;;;4914119;29;20051;-94
2023/07/24 09:00:04;;;;;;;7.13;5.28;;;;;;;;;;4902223;29;20046;-93
2023/07/24 09:02:36;;;;;;;6.65;5.28;;;;;;;;;;4920471;28;20032;-93
2023/07/24 09:05:04;;;;;;;7.25;5.70;;;;;;;;;;4912747;29;20170;-93
2023/07/24 09:07:31;;;;;;;9.02;5.65;;;;;;;;;;4901449;29;20051;-94
2023/07/24 09:10:01;;;;;;;5.70;4.97;;;;;;;;;;4921027;28;20063;-92
2023/07/24 09:12:29;;;;;;;7.97;5.13;;;;;;;;;;4923246;28;20054;-92
2023/07/24 09:15:06;;;;;;;5.40;4.85;;;;;;;;;;4935796;28;20040;-92
2023/07/24 09:17:34;;;;;;;10.38;5.43;;;;;;;;;;4899314;29;20040;-94
2023/07/24 09:20:03;;;;;;;7.55;5.28;;;;;;;;;;4919383;29;20046;-93
2023/07/24 09:22:31;;;;;;;7.15;5.63;;;;;;;;;;4901937;29;20032;-94
2023/07/24 09:25:03;;;;;;;8.85;5.38;;;;;;;;;;4919946;29;20064;-93
2023/07/24 09:27:30;;;;;;;7.13;4.43;;;;;;;;;;4928381;29;20046;-92
2023/07/24 09:30:00;;;;;;;8.63;5.47;;;;;;;;;;4915706;29;20055;-93
2023/07/24 09:32:30;;;;;;;7.25;5.07;;;;;;;;;;4913525;28;20028;-93
2023/07/24 09:35:00;;;;;;;7.50;5.47;;;;;;;;;;4919602;28;20040;-93
2023/07/24 09:37:28;;;;;;;9.05;5.18;;;;;;;;;;4938816;28;20044;-93
2023/07/24 09:39:56;;;;;;;6.72;4.68;;;;;;;;;;4920575;29;20060;-93
2023/07/24 09:42:32;;;;;;;7.35;5.88;;;;;;;;;;4935676;29;20052;-93
2023/07/24 09:44:59;;;;;;;5.25;4.53;;;;;;;;;;4937842;28;20032;-92
2023/07/24 09:47:27;;;;;;;8.25;5.25;;;;;;;;;;4937392;28;20036;-93
2023/07/24 09:49:55;;;;;;;8.38;5.30;;;;;;;;;;4939759;28;20060;-94
2023/07/24 09:52:22;;;;;;;6.57;5.30;;;;;;;;;;4939768;28;20042;-93
2023/07/24 09:54:58;;;;;;;5.85;5.03;;;;;;;;;;4914578;29;20064;-93
2023/07/24 09:57:27;;;;;;;6.00;4.40;;;;;;;;;;4900614;29;20063;-92
2023/07/24 09:59:57;;;;;;;7.00;5.28;;;;;;;;;;4915594;28;20044;-92
2023/07/24 10:02:26;;;;;;;8.77;6.40;;;;;;;;;;4933726;28;20027;-93
2023/07/24 10:04:54;;;;;;;7.15;5.40;;;;;;;;;;4909058;29;20052;-93
2023/07/24 10:07:22;;;;;;;5.20;4.55;;;;;;;;;;4918372;29;20036;-93
2023/07/24 10:09:50;;;;;;;5.97;4.47;;;;;;;;;;4921442;28;20032;-93
2023/07/24 10:12:19;;;;;;;7.78;5.03;;;;;;;;;;4941573;28;20028;-93
2023/07/24 10:14:47;;;;;;;6.47;5.10;;;;;;;;;;4940593;28;20056;-92
2023/07/24 10:17:27;;;;;;;6.75;4.55;;;;;;;;;;4937305;28;20516;-93
2023/07/24 10:20:04;;;;;;;9.23;6.28;;;;;;;;;;4934593;29;20064;-94
2023/07/24 10:22:34;;;;;;;7.75;4.60;;;;;;;;;;4921419;29;20405;-93
2023/07/24 10:25:05;;;;;;;8.23;5.97;;;;;;;;;;4937461;29;20029;-93
2023/07/24 10:27:36;;;;;;;6.68;4.93;;;;;;;;;;4923167;29;20056;-93
2023/07/24 10:30:07;;;;;;;6.03;5.38;;;;;;;;;;4900700;29;20062;-93
2023/07/24 10:32:46;;;;;;;5.82;4.55;;;;;;;;;;4910186;29;20060;-94
2023/07/24 10:35:14;;;;;;;6.63;5.18;;;;;;;;;;4934256;28;20036;-93
2023/07/24 10:37:41;;;;;;;4.63;3.97;;;;;;;;;;4862705;29;1253821;-93
2023/07/24 10:40:20;;;;;;;8.20;5.35;;;;;;;;;;4914936;29;20062;-94
2023/07/24 10:42:47;;;;;;;9.25;5.43;;;;;;;;;;4918725;29;20070;-94
2023/07/24 10:45:17;;;;;;;6.90;5.28;;;;;;;;;;4932741;28;20032;-93
2023/07/24 10:47:46;;;;;;;7.20;4.85;;;;;;;;;;4928228;28;20036;-93
2023/07/24 10:50:14;;;;;;;5.32;4.70;;;;;;;;;;4920976;29;20402;-93
2023/07/24 10:52:41;;;;;;;6.00;4.47;;;;;;;;;;4922018;29;20063;-93
2023/07/24 10:55:09;;;;;;;10.65;4.97;;;;;;;;;;4938165;28;20032;-94
2023/07/24 10:57:39;;;;;;;8.18;5.60;;;;;;;;;;4920861;29;20052;-93
2023/07/24 11:00:10;;;;;;;8.77;4.53;;;;;;;;;;4921572;28;20033;-93
2023/07/24 11:02:37;;;;;;;7.25;5.40;;;;;;;;;;4907522;28;20024;-92
2023/07/24 11:05:09;;;;;;;5.43;4.88;;;;;;;;;;4906110;28;20270;-93
2023/07/24 11:07:39;;;;;;;6.18;5.30;;;;;;;;;;4922709;28;20048;-93
2023/07/24 11:10:16;;;;;;;8.95;5.40;;;;;;;;;;4920766;29;20028;-93
2023/07/24 11:12:44;;;;;;;6.75;4.95;;;;;;;;;;4923096;29;20042;-93
2023/07/24 11:15:12;;;;;;;7.20;4.97;;;;;;;;;;4916258;29;20047;-93
2023/07/24 11:17:43;;;;;;;5.55;4.65;;;;;;;;;;4907806;29;20046;-93
2023/07/24 11:20:17;;;;;;;6.20;4.40;;;;;;;;;;4939053;28;20032;-94
2023/07/24 11:22:47;;;;;;;5.90;5.22;;;;;;;;;;4905981;28;20047;-94
2023/07/24 11:25:17;;;;;;;;;;;;;;;;;;4898331;29;20043;-92
2023/07/24 11:27:49;;;;;;;5.35;4.43;;;;;;;;;;4939707;28;19907;-94
2023/07/24 11:30:20;;;;;;;9.15;4.68;;;;;;;;;;4913055;29;20068;-93
2023/07/24 11:32:49;;;;;;;6.15;4.72;;;;;;;;;;4917076;29;20047;-95
2023/07/24 11:35:22;;;;;;;6.60;5.00;;;;;;;;;;4931515;29;20035;-95
2023/07/24 11:37:51;;;;;;;4.45;3.88;;;;;;;;;;4903450;29;20056;-95
2023/07/24 11:40:20;;;;;;;6.55;4.43;;;;;;;;;;4938224;28;20052;-93
2023/07/24 11:42:50;;;;;;;7.00;5.32;;;;;;;;;;4923024;28;20036;-95
2023/07/24 11:45:19;;;;;;;6.80;4.60;;;;;;;;;;4913012;29;20035;-94
2023/07/24 11:47:48;;;;;;;6.35;4.25;;;;;;;;;;4912781;29;20051;-93
2023/07/24 11:50:16;;;;;;;8.73;4.32;;;;;;;;;;4918569;29;20051;-95
2023/07/24 11:53:15;;;;;;;7.60;4.82;;;;;;;;;;4934988;28;20062;-94
2023/07/24 11:55:42;;;;;;;8.18;4.85;;;;;;;;;;4907146;29;20045;-94
2023/07/24 11:58:18;;;;;;;5.53;4.53;;;;;;;;;;4920242;29;20036;-94
2023/07/24 12:00:48;;;;;;;5.43;4.25;;;;;;;;;;4918250;29;20055;-92
2023/07/24 12:03:20;;;;;;;6.40;3.92;;;;;;;;;;4936708;28;20044;-92
2023/07/24 12:05:51;;;;;;;5.57;4.47;;;;;;;;;;4902783;29;20036;-94
2023/07/24 12:08:23;;;;;;;4.88;4.32;;;;;;;;;;4931302;29;20058;-93
2023/07/24 12:10:51;;;;;;;5.90;4.95;;;;;;;;;;4918542;29;20084;-94
2023/07/24 12:13:20;;;;;;;4.70;4.25;;;;;;;;;;4919963;29;20051;-94
2023/07/24 12:15:47;;;;;;;6.25;5.20;;;;;;;;;;4938774;29;20049;-94
2023/07/24 12:18:15;;;;;;;7.05;6.45;;;;;;;;;;4936729;28;20048;-93
2023/07/24 12:20:43;;;;;;;11.82;5.95;;;;;;;;;;4940495;28;20058;-93
2023/07/24 12:23:10;;;;;;;4.80;4.35;;;;;;;;;;4914438;29;20505;-93
2023/07/24 12:25:39;;;;;;;7.22;4.50;;;;;;;;;;4932288;29;20047;-93
2023/07/24 12:28:10;;;;;;;7.47;5.33;;;;;;;;;;4932667;29;20040;-93
2023/07/24 12:30:44;;;;;;;6.75;4.63;;;;;;;;;;4932871;29;20054;-93
2023/07/24 12:33:13;;;;;;;6.32;5.43;;;;;;;;;;4929869;29;20044;-94
2023/07/24 12:35:43;;;;;;;7.22;5.05;;;;;;;;;;4933620;29;20040;-93
2023/07/24 12:38:10;;;;;;;9.10;4.88;;;;;;;;;;4892484;29;20053;-94
2023/07/24 12:40:39;;;;;;;6.30;5.13;;;;;;;;;;4897105;29;20045;-92
2023/07/24 12:43:07;;;;;;;7.78;5.47;;;;;;;;;;4917311;29;20028;-93
2023/07/24 12:45:34;;;;;;;6.00;4.90;;;;;;;;;;4915746;29;20063;-94
2023/07/24 12:48:05;;;;;;;6.35;5.40;;;;;;;;;;4907067;29;20048;-94
2023/07/24 12:50:32;;;;;;;7.10;4.50;;;;;;;;;;4911934;29;20059;-93
2023/07/24 12:53:02;;;;;;;6.80;5.15;;;;;;;;;;4914423;29;20044;-93
2023/07/24 12:55:30;;;;;;;6.10;4.88;;;;;;;;;;4913819;29;20054;-93
2023/07/24 12:57:58;;;;;;;4.68;4.15;;;;;;;;;;4914702;29;20048;-93
2023/07/24 13:00:26;;;;;;;6.00;4.93;;;;;;;;;;4905348;29;20055;-94
2023/07/24 13:02:53;;;;;;;5.70;5.07;;;;;;;;;;4907857;29;20056;-94
2023/07/24 13:05:21;;;;;;;9.85;5.00;;;;;;;;;;4906665;29;20056;-93
2023/07/24 13:07:48;;;;;;;7.43;5.20;;;;;;;;;;4918409;29;20033;-93
2023/07/24 13:10:18;;;;;;;8.70;5.88;;;;;;;;;;4931277;29;20060;-92
2023/07/24 13:12:45;;;;;;;8.35;5.45;;;;;;;;;;4906346;29;20055;-94
2023/07/24 13:15:14;;;;;;;6.15;4.82;;;;;;;;;;4910515;29;20498;-93
2023/07/24 13:17:41;;;;;;;6.38;4.47;;;;;;;;;;4905325;29;20056;-94
2023/07/24 13:20:10;;;;;;;9.07;5.70;;;;;;;;;;4905798;29;20051;-94
2023/07/24 13:22:40;;;;;;;8.27;5.15;;;;;;;;;;4885491;29;20426;-94
2023/07/24 13:25:08;;;;;;;6.70;4.53;;;;;;;;;;4909519;29;20052;-94
2023/07/24 13:27:36;;;;;;;6.50;4.72;;;;;;;;;;4905872;29;20052;-94
2023/07/24 13:30:04;;;;;;;5.78;4.93;;;;;;;;;;4905417;29;20048;-94
2023/07/24 13:32:34;;;;;;;5.35;4.35;;;;;;;;;;4904712;29;20049;-94
2023/07/24 13:35:01;;;;;;;5.47;4.50;;;;;;;;;;4906974;29;20084;-94
2023/07/24 13:37:33;;;;;;;5.13;4.38;;;;;;;;;;4920382;29;20048;-94
2023/07/24 13:40:01;;;;;;;7.95;5.07;;;;;;;;;;4927699;29;20056;-93
2023/07/24 13:42:31;;;;;;;4.35;3.80;;;;;;;;;;4923056;29;20048;-94
2023/07/24 13:44:59;;;;;;;5.50;4.35;;;;;;;;;;4898615;29;20062;-93
2023/07/24 13:47:26;;;;;;;7.82;5.70;;;;;;;;;;4930814;29;20063;-95
2023/07/24 13:49:56;;;;;;;6.10;4.82;;;;;;;;;;4915734;29;20063;-95
2023/07/24 13:52:26;;;;;;;5.50;4.78;;;;;;;;;;4930880;29;20054;-95
2023/07/24 13:54:53;;;;;;;7.68;4.47;;;;;;;;;;4907897;29;20054;-95
2023/07/24 13:57:21;;;;;;;5.72;4.93;;;;;;;;;;4940244;28;20056;-94
2023/07/24 13:59:49;;;;;;;6.03;4.43;;;;;;;;;;4944183;29;20056;-95
2023/07/24 14:02:16;;;;;;;4.45;4.05;;;;;;;;;;4937687;28;20043;-94
2023/07/24 14:04:51;;;;;;;7.35;4.65;;;;;;;;;;4935731;29;20086;-94
2023/07/24 14:07:20;;;;;;;4.90;4.30;;;;;;;;;;4952395;29;20048;-94
2023/07/24 14:09:47;;;;;;;7.07;4.47;;;;;;;;;;4939233;29;20052;-94
2023/07/24 14:12:14;;;;;;;4.03;3.58;;;;;;;;;;4953253;28;20053;-95
2023/07/24 14:14:42;;;;;;;5.20;3.95;;;;;;;;;;4952184;29;20056;-94
2023/07/24 14:17:09;;;;;;;6.25;4.90;;;;;;;;;;4936119;29;20058;-94
2023/07/24 14:19:37;;;;;;;4.30;3.90;;;;;;;;;;4957514;29;20038;-94
2023/07/24 14:22:07;;;;;;;6.07;4.25;;;;;;;;;;4939616;29;20031;-94
2023/07/24 14:24:36;;;;;;;5.82;4.70;;;;;;;;;;4923305;29;20048;-94
2023/07/24 14:27:03;;;;;;;5.55;4.20;;;;;;;;;;4936154;29;20050;-95
2023/07/24 14:29:31;;;;;;;5.28;4.05;;;;;;;;;;4922776;29;20071;-94
2023/07/24 14:31:59;;;;;;;4.60;3.38;;;;;;;;;;4955446;29;20066;-94
2023/07/24 14:34:27;;;;;;;4.55;3.55;;;;;;;;;;4952288;29;20051;-94
2023/07/24 14:36:54;;;;;;;5.32;3.70;;;;;;;;;;4935677;29;20056;-93
2023/07/24 14:39:22;;;;;;;5.95;4.30;;;;;;;;;;4934163;29;20063;-95
2023/07/24 14:41:51;;;;;;;5.15;3.58;;;;;;;;;;4938276;29;20056;-94
2023/07/24 14:44:20;;;;;;;5.85;4.38;;;;;;;;;;4930488;29;20527;-94
2023/07/24 14:46:50;;;;;;;4.18;3.78;;;;;;;;;;4952306;29;20052;-95
2023/07/24 14:49:18;;;;;;;5.03;3.80;;;;;;;;;;4941219;29;20063;-94
2023/07/24 14:51:45;;;;;;;5.18;4.10;;;;;;;;;;4934322;29;20051;-94
2023/07/24 14:54:13;;;;;;;4.05;3.47;;;;;;;;;;4948666;29;20529;-94
2023/07/24 14:56:40;;;;;;;5.85;3.78;;;;;;;;;;4941077;29;20039;-94
2023/07/24 14:59:12;;;;;;;11.10;7.22;;;;;;;;;;4915055;29;20056;-94
2023/07/24 15:01:40;;;;;;;11.07;6.13;;;;;;;;;;4944163;28;20237;-94
2023/07/24 15:04:10;;;;;;;6.00;4.10;;;;;;;;;;4945131;29;20047;-94
2023/07/24 15:06:38;;;;;;;6.85;3.85;;;;;;;;;;4905768;29;20450;-92
2023/07/24 15:09:05;;;;;;;5.65;3.63;;;;;;;;;;4941766;29;20054;-93
2023/07/24 15:11:32;;;;;;;7.63;4.07;;;;;;;;;;4942986;29;20043;-93
2023/07/24 15:14:00;;;;;;;7.30;4.20;;;;;;;;;;4922694;29;20050;-94
2023/07/24 15:16:29;;;;;;;7.55;4.20;;;;;;;;;;4911023;29;20055;-94
2023/07/24 15:18:56;;;;;;;5.15;3.67;;;;;;;;;;4923978;29;20060;-93
2023/07/24 15:21:23;;;;;;;6.00;4.00;;;;;;;;;;4927483;29;20047;-92
2023/07/24 15:23:55;;;;;;;6.22;3.92;;;;;;;;;;4939173;29;20132;-94
2023/07/24 15:26:25;;;;;;;4.80;4.07;;;;;;;;;;4931716;29;20063;-93
2023/07/24 15:28:52;;;;;;;4.13;3.15;;;;;;;;;;4927208;29;20052;-92
2023/07/24 15:31:19;;;;;;;7.25;3.35;;;;;;;;;;4921924;29;20044;-93
2023/07/24 15:33:53;;;;;;;5.38;3.53;;;;;;;;;;4929815;29;20062;-92
2023/07/24 15:36:21;;;;;;;10.27;3.92;;;;;;;;;;4946718;29;20055;-92
2023/07/24 15:38:48;;;;;;;5.63;3.97;;;;;;;;;;4948067;28;20418;-93
2023/07/24 15:41:16;;;;;;;4.57;2.85;;;;;;;;;;4940998;28;20039;-93
2023/07/24 15:43:43;;;;;;;5.47;2.67;;;;;;;;;;4955158;28;20048;-93
2023/07/24 15:46:15;;;;;;;6.43;3.10;;;;;;;;;;4930250;28;20039;-92
2023/07/24 15:48:43;;;;;;;4.60;3.05;;;;;;;;;;4963557;28;20059;-92
2023/07/24 15:51:12;;;;;;;5.97;3.80;;;;;;;;;;4955824;28;20037;-92
2023/07/24 15:53:39;;;;;;;4.88;3.60;;;;;;;;;;4961525;28;20050;-93
2023/07/24 15:56:16;;;;;;;4.50;2.58;;;;;;;;;;4926787;29;20055;-93
2023/07/24 15:58:44;;;;;;;4.18;3.38;;;;;;;;;;4920810;29;20070;-94
2023/07/24 16:01:11;;;;;;;4.15;3.30;;;;;;;;;;4916451;29;20062;-93
2023/07/24 16:03:39;;;;;;;5.18;3.75;;;;;;;;;;4930444;29;20058;-93
2023/07/24 16:06:09;;;;;;;4.20;3.38;;;;;;;;;;4926988;29;20058;-93
2023/07/24 16:08:40;;;;;;;5.57;3.95;;;;;;;;;;4933236;29;20054;-94
2023/07/24 16:11:08;;;;;;;6.78;3.88;;;;;;;;;;4945679;29;20048;-94
2023/07/24 16:13:37;;;;;;;5.03;4.10;;;;;;;;;;4945122;28;20036;-92
2023/07/24 16:16:05;;;;;;;5.00;4.13;;;;;;;;;;4923660;29;20052;-94
2023/07/24 16:18:33;;;;;;;9.02;5.50;;;;;;;;;;4937889;29;20044;-94
2023/07/24 16:21:02;;;;;;;6.75;4.47;;;;;;;;;;4942138;29;20051;-93
2023/07/24 16:23:30;;;;;;;6.03;4.65;;;;;;;;;;4942111;29;20052;-93
2023/07/24 16:26:00;;;;;;;6.43;4.20;;;;;;;;;;4933890;29;20048;-93
2023/07/24 16:28:31;;;;;;;4.47;3.63;;;;;;;;;;4924273;29;20055;-93
2023/07/24 16:30:58;;;;;;;8.98;4.07;;;;;;;;;;4924674;29;20062;-93
2023/07/24 16:33:31;;;;;;;4.70;3.85;;;;;;;;;;4936720;29;20084;-93
2023/07/24 16:36:00;;;;;;;4.65;3.90;;;;;;;;;;4916363;29;20047;-93
2023/07/24 16:38:28;;;;;;;4.80;3.42;;;;;;;;;;4943347;29;20047;-95
2023/07/24 16:40:55;;;;;;;6.32;4.00;;;;;;;;;;4920816;28;20048;-93
2023/07/24 16:43:29;;;;;;;5.80;3.63;;;;;;;;;;4944089;29;20048;-93
2023/07/24 16:45:57;;;;;;;3.78;3.17;;;;;;;;;;4909735;29;20051;-94
2023/07/24 16:48:24;;;;;;;4.95;2.88;;;;;;;;;;4926315;29;20063;-94
2023/07/24 16:50:52;;;;;;;9.27;3.72;;;;;;;;;;4908009;29;20055;-94
2023/07/24 16:53:20;;;;;;;5.45;3.45;;;;;;;;;;4937506;29;20059;-94
2023/07/24 16:55:49;;;;;;;3.65;3.13;;;;;;;;;;4948548;28;20043;-93
2023/07/24 16:58:19;;;;;;;4.55;2.97;;;;;;;;;;4954454;28;20320;-94
2023/07/24 17:00:54;;;;;;;4.75;3.97;;;;;;;;;;4954035;28;20036;-93
2023/07/24 17:03:23;;;;;;;3.83;2.85;;;;;;;;;;4914996;29;20044;-93
2023/07/24 17:05:54;;;;;;;4.68;3.53;;;;;;;;;;4952678;28;20039;-95